Time;durP1;ratioP1;P1;durP2;ratioP2;P2;SDS_P1;SDS_P2;PMS_P1;PMS_P2;Temp;Humidity;BMP_temperature;BMP_pressure;BME280_temperature;BME280_humidity;BME280_pressure;Samples;Min_cycle;Max_cycle;Signal;HPM_P1;HPM_P2
2023/01/27 00:00:14;;;;;;;10.88;1.88;;;;;;;12.62;49.51;102095.53;5015141;28;20497;-69
2023/01/27 00:02:40;;;;;;;6.70;1.65;;;;;;;12.63;48.84;102088.31;4998142;28;20033;-68
2023/01/27 00:05:06;;;;;;;4.85;1.40;;;;;;;12.55;48.99;102077.28;5015278;28;20032;-69
2023/01/27 00:07:32;;;;;;;5.82;1.45;;;;;;;12.62;49.45;102083.91;5014966;28;20466;-68
2023/01/27 00:09:58;;;;;;;9.55;1.05;;;;;;;12.59;49.14;102094.91;5016065;28;20157;-68
2023/01/27 00:15:09;;;;;;;4.30;1.52;;;;;;;12.51;49.42;102086.50;5014236;28;20100;-68
2023/01/27 00:17:35;;;;;;;11.75;1.40;;;;;;;12.52;48.88;102085.56;5013937;28;20038;-69
2023/01/27 00:20:01;;;;;;;7.15;1.20;;;;;;;12.49;49.33;102091.16;5015719;28;20040;-68
2023/01/27 00:25:11;;;;;;;6.32;1.33;;;;;;;12.44;49.62;102080.75;5009264;28;20521;-68
2023/01/27 00:27:36;;;;;;;4.30;1.08;;;;;;;12.44;48.93;102087.94;5014422;28;20026;-68
2023/01/27 00:30:03;;;;;;;10.23;1.05;;;;;;;12.44;50.05;102083.44;4996809;28;20037;-68
2023/01/27 00:35:17;;;;;;;4.75;0.80;;;;;;;12.44;49.50;102086.13;5014607;28;20044;-68
2023/01/27 00:37:44;;;;;;;6.40;1.30;;;;;;;12.44;48.95;102090.63;5015561;28;20034;-68
2023/01/27 00:40:11;;;;;;;11.30;1.60;;;;;;;12.45;49.67;102089.66;5014337;28;20042;-68
2023/01/27 00:42:36;;;;;;;6.18;1.23;;;;;;;12.42;48.82;102087.19;5014173;28;20040;-69
2023/01/27 00:47:48;;;;;;;4.35;0.80;;;;;;;12.42;48.65;102082.69;5014160;28;20053;-69
2023/01/27 00:50:15;;;;;;;6.07;2.22;;;;;;;12.45;49.50;102092.34;5014471;28;20036;-69
2023/01/27 00:52:41;;;;;;;4.07;1.20;;;;;;;12.42;48.63;102090.75;4998416;28;20463;-69
2023/01/27 00:55:07;;;;;;;6.70;1.23;;;;;;;12.40;49.18;102087.28;5014666;28;20145;-69
2023/01/27 00:57:33;;;;;;;1.98;1.02;;;;;;;12.44;49.23;102085.25;4998344;28;20030;-68
2023/01/27 00:59:58;;;;;;;7.50;1.45;;;;;;;12.43;49.62;102084.38;5014905;28;20112;-69
2023/01/27 01:02:24;;;;;;;7.03;1.38;;;;;;;12.46;49.68;102088.66;5015744;28;20033;-68
2023/01/27 01:04:50;;;;;;;1.77;0.93;;;;;;;12.46;48.58;102083.31;4982484;28;20053;-69
2023/01/27 01:07:15;;;;;;;5.18;0.88;;;;;;;12.45;48.52;102081.59;5003500;28;20041;-68
2023/01/27 01:09:40;;;;;;;10.48;1.50;;;;;;;12.46;49.03;102092.22;4998321;28;20033;-68
2023/01/27 01:12:06;;;;;;;8.25;1.05;;;;;;;12.39;49.68;102087.41;5016383;28;20561;-68
2023/01/27 01:14:31;;;;;;;7.45;1.15;;;;;;;12.43;49.38;102094.25;5015223;28;20044;-68
2023/01/27 01:16:57;;;;;;;6.72;0.95;;;;;;;12.42;49.30;102101.50;4997886;28;20395;-69
2023/01/27 01:19:23;;;;;;;4.55;1.20;;;;;;;12.40;49.08;102094.47;4981497;28;20037;-68
2023/01/27 01:21:49;;;;;;;6.82;1.13;;;;;;;12.45;48.76;102109.31;4981597;28;20044;-68
2023/01/27 01:24:15;;;;;;;10.20;1.70;;;;;;;12.47;49.16;102107.41;5014792;28;20033;-68
2023/01/27 01:26:40;;;;;;;4.22;1.00;;;;;;;12.49;49.26;102109.97;5013988;28;20041;-68
2023/01/27 01:29:05;;;;;;;9.35;1.10;;;;;;;12.50;48.75;102111.69;5013707;28;20450;-68
2023/01/27 01:31:31;;;;;;;4.82;0.80;;;;;;;12.48;48.24;102113.63;5015436;28;20053;-68
2023/01/27 01:33:56;;;;;;;6.78;0.93;;;;;;;12.49;49.42;102116.19;5013568;28;20442;-68
2023/01/27 01:36:21;;;;;;;6.03;1.58;;;;;;;12.46;48.60;102118.22;5015073;28;20038;-68
2023/01/27 01:38:47;;;;;;;5.10;0.77;;;;;;;12.48;49.10;102116.31;5002761;28;20050;-68
2023/01/27 01:41:16;;;;;;;11.30;1.23;;;;;;;12.50;48.74;102125.13;4981218;28;20116;-68
2023/01/27 01:43:41;;;;;;;5.35;1.10;;;;;;;12.51;49.07;102113.38;5013604;28;20037;-69
2023/01/27 01:46:11;;;;;;;5.90;1.33;;;;;;;12.51;48.38;102118.75;4997275;28;20029;-68
2023/01/27 01:48:51;;;;;;;7.35;1.83;;;;;;;12.45;49.17;102108.47;4997067;28;20034;-68
2023/01/27 01:51:43;;;;;;;7.85;2.25;;;;;;;12.52;48.19;102123.19;5013753;28;20022;-69
2023/01/27 01:54:18;;;;;;;6.60;1.27;;;;;;;12.45;49.06;102119.22;5013939;28;20081;-68
2023/01/27 01:56:44;;;;;;;7.63;1.15;;;;;;;12.51;48.33;102126.81;4997044;28;20038;-68
2023/01/27 01:59:14;;;;;;;7.20;1.00;;;;;;;12.51;48.04;102119.63;4995814;28;20544;-68
2023/01/27 02:01:39;;;;;;;2.92;1.10;;;;;;;12.53;47.99;102120.41;5013455;28;20042;-68
2023/01/27 02:04:10;;;;;;;8.15;1.67;;;;;;;12.53;49.08;102122.22;5013447;28;20034;-69
2023/01/27 02:06:59;;;;;;;4.93;1.35;;;;;;;12.52;47.94;102128.56;5013016;28;20470;-68
2023/01/27 02:09:26;;;;;;;6.07;1.10;;;;;;;12.51;48.11;102119.63;4993576;28;20033;-68
2023/01/27 02:11:51;;;;;;;4.72;1.33;;;;;;;12.50;49.07;102127.81;5014667;28;20109;-68
2023/01/27 02:14:17;;;;;;;7.90;2.00;;;;;;;12.46;48.78;102126.28;5012906;28;20472;-68
2023/01/27 02:16:43;;;;;;;7.30;2.63;;;;;;;12.42;48.15;102122.13;5012961;28;20034;-69
2023/01/27 02:19:19;;;;;;;5.10;1.20;;;;;;;12.42;48.94;102127.50;5012802;28;20406;-69
2023/01/27 02:21:45;;;;;;;8.68;1.83;;;;;;;12.43;48.99;102130.06;5013372;28;20030;-68
2023/01/27 02:24:11;;;;;;;5.38;1.40;;;;;;;12.44;49.10;102128.25;5014302;28;20030;-68
2023/01/27 02:26:42;;;;;;;4.47;1.42;;;;;;;12.45;47.92;102132.66;4997395;28;20034;-68
2023/01/27 02:29:11;;;;;;;1.88;1.50;;;;;;;12.47;48.59;102130.72;4997256;28;20049;-68
2023/01/27 02:31:37;;;;;;;7.65;1.40;;;;;;;12.47;48.79;102119.97;4997471;28;20515;-68
2023/01/27 02:34:11;;;;;;;10.32;2.85;;;;;;;12.46;48.31;102127.16;5014855;28;20033;-68
2023/01/27 02:36:44;;;;;;;8.52;1.65;;;;;;;12.48;48.13;102125.22;5013181;28;20096;-68
2023/01/27 02:39:11;;;;;;;4.93;1.52;;;;;;;12.50;47.92;102127.81;4997467;28;20037;-68
2023/01/27 02:41:42;;;;;;;11.25;2.13;;;;;;;12.50;47.78;102134.06;4996912;28;20041;-68
2023/01/27 02:44:08;;;;;;;7.57;1.73;;;;;;;12.51;47.77;102134.88;4996989;28;20053;-68
2023/01/27 02:46:34;;;;;;;7.47;2.45;;;;;;;12.46;48.61;102129.84;5013262;28;20030;-68
2023/01/27 02:49:00;;;;;;;5.90;1.55;;;;;;;12.44;47.63;102126.41;4997023;28;20117;-68
2023/01/27 02:51:25;;;;;;;2.63;1.42;;;;;;;12.47;47.67;102136.94;5014258;28;20080;-69
2023/01/27 02:53:51;;;;;;;7.22;1.70;;;;;;;12.46;48.42;102129.84;5013552;28;20462;-68
2023/01/27 02:56:16;;;;;;;3.95;1.55;;;;;;;12.44;47.45;102122.88;5013477;28;20034;-68
2023/01/27 02:58:41;;;;;;;9.43;2.33;;;;;;;12.49;48.61;102136.81;4996856;28;20088;-69
2023/01/27 03:01:07;;;;;;;4.32;1.70;;;;;;;12.48;47.51;102119.84;5013071;28;20029;-69
2023/01/27 03:03:32;;;;;;;4.38;1.60;;;;;;;12.46;48.00;102128.97;5013188;28;20041;-69
2023/01/27 03:05:58;;;;;;;4.53;1.70;;;;;;;12.40;48.63;102127.59;5013841;28;20061;-69
2023/01/27 03:08:23;;;;;;;4.22;1.63;;;;;;;12.45;47.67;102135.34;5014270;28;20172;-68
2023/01/27 03:10:50;;;;;;;4.93;1.27;;;;;;;12.45;47.63;102148.78;4997215;28;20061;-69
2023/01/27 03:13:17;;;;;;;2.63;1.65;;;;;;;12.42;47.75;102136.44;4998217;28;20038;-69
2023/01/27 03:18:26;;;;;;;8.38;1.95;;;;;;;12.37;47.71;102129.66;5014292;28;20059;-69
2023/01/27 03:21:00;;;;;;;7.57;1.92;;;;;;;12.41;47.61;102140.06;5013322;28;20030;-68
2023/01/27 03:23:26;;;;;;;5.35;1.88;;;;;;;12.42;47.74;102146.31;4995350;28;20038;-69
2023/01/27 03:25:51;;;;;;;5.15;2.58;;;;;;;12.40;47.84;102137.47;5014564;28;20046;-69
2023/01/27 03:28:17;;;;;;;3.97;1.38;;;;;;;12.39;48.51;102141.16;5014291;28;20084;-68
2023/01/27 03:30:43;;;;;;;5.40;2.25;;;;;;;12.35;47.52;102134.25;5012861;28;20034;-68
2023/01/27 03:33:08;;;;;;;7.97;2.45;;;;;;;12.34;47.10;102136.09;5013025;28;20036;-69
2023/01/27 03:35:38;;;;;;;5.28;2.42;;;;;;;12.35;47.40;102142.31;4996393;28;20034;-68
2023/01/27 03:46:24;;;;;;;9.48;2.70;;;;;;;12.36;47.13;102150.28;5013882;28;20064;-68
2023/01/27 03:48:52;;;;;;;6.53;2.63;;;;;;;12.34;47.53;102159.44;5013700;28;20117;-69
2023/01/27 03:51:22;;;;;;;11.05;3.60;;;;;;;12.31;47.41;102159.66;5012814;28;20080;-68
2023/01/27 03:53:48;;;;;;;6.85;2.70;;;;;;;12.26;46.96;102151.88;5012430;28;20022;-68
2023/01/27 03:56:15;;;;;;;4.57;2.60;;;;;;;12.31;48.25;102156.97;5012395;28;20112;-68
2023/01/27 03:58:42;;;;;;;7.90;2.28;;;;;;;12.32;48.33;102156.84;5012679;28;20041;-68
2023/01/27 04:01:12;;;;;;;8.77;2.65;;;;;;;12.32;47.11;102166.72;4996196;28;20034;-68
2023/01/27 04:09:10;;;;;;;5.93;2.58;;;;;;;12.34;47.96;102178.25;5012743;28;20048;-69
2023/01/27 04:11:54;;;;;;;7.55;3.22;;;;;;;12.30;47.00;102174.91;5013613;28;20514;-69
2023/01/27 04:14:23;;;;;;;5.68;2.50;;;;;;;12.33;48.07;102184.56;5012737;28;20112;-68
2023/01/27 04:16:51;;;;;;;8.43;3.67;;;;;;;12.26;47.36;102176.94;5012192;28;20536;-68
2023/01/27 04:19:17;;;;;;;13.88;4.03;;;;;;;12.30;47.17;102190.16;4996318;28;20030;-68
2023/01/27 04:21:42;;;;;;;15.05;4.75;;;;;;;12.26;47.66;102184.13;4998043;28;20036;-68
2023/01/27 04:24:16;;;;;;;9.75;4.35;;;;;;;12.26;47.71;102195.75;4999966;28;20130;-68
2023/01/27 04:26:43;;;;;;;8.38;4.20;;;;;;;12.22;47.74;102196.06;5000146;28;20038;-68
2023/01/27 04:29:08;;;;;;;11.52;5.03;;;;;;;12.17;47.17;102193.69;4999494;28;20064;-68
2023/01/27 04:31:34;;;;;;;16.80;6.38;;;;;;;12.21;46.88;102195.19;4999507;28;20026;-68
2023/01/27 04:33:59;;;;;;;14.23;6.05;;;;;;;12.14;47.36;102191.19;5015963;28;20040;-68
2023/01/27 04:36:25;;;;;;;20.20;6.90;;;;;;;12.16;47.90;102205.41;5016397;28;20026;-68
2023/01/27 04:38:50;;;;;;;19.83;7.25;;;;;;;12.13;47.99;102194.88;5016311;28;20061;-68
2023/01/27 04:41:15;;;;;;;26.15;7.38;;;;;;;12.13;47.00;102188.63;5017069;28;20494;-68
2023/01/27 04:43:41;;;;;;;15.05;5.70;;;;;;;12.15;47.77;102197.44;4999579;28;20034;-68
2023/01/27 04:46:06;;;;;;;19.02;7.30;;;;;;;12.08;46.95;102188.97;4999505;28;20378;-68
2023/01/27 04:48:32;;;;;;;12.10;5.40;;;;;;;12.13;47.64;102205.63;4999418;28;20041;-68
2023/01/27 04:50:57;;;;;;;13.10;6.22;;;;;;;12.11;47.48;102199.50;5000208;28;20117;-68
2023/01/27 04:53:23;;;;;;;15.65;6.00;;;;;;;12.11;47.46;102206.69;5015486;28;20045;-68
2023/01/27 04:55:48;;;;;;;11.82;5.25;;;;;;;12.08;46.69;102218.50;4998926;28;20108;-68
2023/01/27 04:58:16;;;;;;;11.52;5.68;;;;;;;12.06;47.19;102217.72;5015090;28;20037;-68
2023/01/27 05:00:42;;;;;;;10.95;4.85;;;;;;;12.04;47.39;102216.97;5016712;28;20030;-68
2023/01/27 05:03:09;;;;;;;8.80;5.10;;;;;;;12.06;46.98;102225.78;5015813;28;20057;-68
2023/01/27 05:05:35;;;;;;;10.45;4.90;;;;;;;12.06;47.89;102223.09;5016970;28;20037;-68
2023/01/27 05:08:04;;;;;;;14.77;5.15;;;;;;;12.03;47.44;102231.38;5015128;28;20048;-68
2023/01/27 05:10:30;;;;;;;12.35;4.93;;;;;;;12.00;47.87;102236.97;5014740;28;20038;-68
2023/01/27 05:12:55;;;;;;;16.70;5.97;;;;;;;11.98;47.31;102233.50;5014750;28;20509;-68
2023/01/27 05:15:21;;;;;;;10.73;4.90;;;;;;;11.94;47.50;102226.66;5015161;28;20056;-68
2023/01/27 05:17:46;;;;;;;13.35;4.95;;;;;;;11.99;47.63;102229.00;4997347;28;20513;-68
2023/01/27 05:20:11;;;;;;;13.68;5.47;;;;;;;12.00;47.34;102236.97;5000385;28;20037;-68
2023/01/27 05:22:37;;;;;;;8.40;4.60;;;;;;;11.97;47.55;102236.31;5016425;28;20041;-68
2023/01/27 05:25:03;;;;;;;7.20;3.97;;;;;;;11.99;47.27;102237.94;5014658;28;20037;-68
2023/01/27 05:27:28;;;;;;;5.68;3.30;;;;;;;11.97;47.34;102236.31;5014606;28;20030;-68
2023/01/27 05:29:53;;;;;;;6.70;3.15;;;;;;;11.96;47.06;102230.06;4982281;28;20026;-68
2023/01/27 05:32:19;;;;;;;7.47;3.03;;;;;;;11.99;46.98;102243.28;5015493;28;20464;-68
2023/01/27 05:34:44;;;;;;;8.85;3.30;;;;;;;11.96;47.29;102240.81;5014734;28;20545;-68
2023/01/27 05:37:09;;;;;;;11.25;3.33;;;;;;;11.97;46.79;102247.91;4997931;28;20057;-68
2023/01/27 05:39:35;;;;;;;8.20;3.50;;;;;;;11.98;47.09;102241.56;4981766;28;20040;-68
2023/01/27 05:42:00;;;;;;;9.00;3.22;;;;;;;12.00;47.33;102244.16;5015766;28;20030;-68
2023/01/27 05:44:25;;;;;;;6.05;2.85;;;;;;;11.97;47.02;102253.28;4997961;28;20042;-68
2023/01/27 05:46:51;;;;;;;7.95;2.97;;;;;;;11.99;46.75;102250.47;5013707;28;20042;-68
2023/01/27 05:49:16;;;;;;;9.50;3.38;;;;;;;11.98;47.48;102241.56;5014323;28;20045;-69
2023/01/27 05:51:41;;;;;;;13.57;3.35;;;;;;;11.97;47.56;102247.91;5015114;28;20029;-68
2023/01/27 05:54:08;;;;;;;10.80;4.47;;;;;;;11.95;46.94;102241.78;5014551;28;20033;-68
2023/01/27 05:56:33;;;;;;;8.10;3.67;;;;;;;11.92;47.41;102247.34;5014031;28;20173;-68
2023/01/27 05:58:59;;;;;;;5.47;2.97;;;;;;;11.95;46.53;102243.63;4997643;28;20038;-68
2023/01/27 06:01:27;;;;;;;9.45;3.20;;;;;;;11.95;47.17;102243.63;5014242;28;20044;-68
2023/01/27 06:03:53;;;;;;;9.25;3.72;;;;;;;11.92;47.49;102241.13;5013574;28;20041;-68
2023/01/27 06:06:20;;;;;;;12.48;3.75;;;;;;;11.95;46.51;102247.13;4998171;28;20034;-68
2023/01/27 06:08:46;;;;;;;7.80;3.85;;;;;;;11.94;47.14;102242.75;5014123;28;20042;-68
2023/01/27 06:11:12;;;;;;;9.07;3.63;;;;;;;11.93;46.87;102245.53;5013803;28;20069;-68
2023/01/27 06:13:37;;;;;;;6.70;3.38;;;;;;;11.91;46.79;102253.69;5012680;28;20070;-68
2023/01/27 06:16:08;;;;;;;8.70;4.35;;;;;;;11.87;46.69;102240.56;5013954;28;20092;-68
2023/01/27 06:18:36;;;;;;;8.68;4.32;;;;;;;11.94;47.62;102248.13;5013602;28;20025;-68
2023/01/27 06:21:02;;;;;;;10.68;4.50;;;;;;;11.90;47.31;102245.72;5014141;28;20052;-68
2023/01/27 06:23:28;;;;;;;10.88;3.88;;;;;;;11.94;46.88;102247.25;5013678;28;20102;-68
2023/01/27 06:25:54;;;;;;;10.13;3.42;;;;;;;11.93;47.31;102246.38;5014669;28;20042;-68
2023/01/27 06:28:20;;;;;;;7.28;3.40;;;;;;;11.94;46.98;102258.88;5013472;28;20038;-68
2023/01/27 06:30:46;;;;;;;8.98;4.20;;;;;;;11.96;46.85;102266.81;5011509;28;20168;-68
2023/01/27 06:33:12;;;;;;;12.52;4.28;;;;;;;11.94;47.10;102269.59;5013769;28;20022;-68
2023/01/27 06:35:40;;;;;;;8.45;3.67;;;;;;;11.93;46.48;102262.50;5013493;28;20406;-68
2023/01/27 06:38:07;;;;;;;10.85;4.40;;;;;;;11.93;47.03;102267.00;5013811;28;20030;-68
2023/01/27 06:40:34;;;;;;;11.98;4.32;;;;;;;11.94;47.54;102261.53;5012980;28;20033;-68
2023/01/27 06:42:59;;;;;;;11.98;4.95;;;;;;;11.91;47.45;102253.69;5013154;28;20501;-68
2023/01/27 06:45:25;;;;;;;12.32;4.63;;;;;;;11.94;46.61;102268.75;4996619;28;20025;-68
2023/01/27 06:47:59;;;;;;;7.78;4.05;;;;;;;11.92;47.04;102276.03;5013188;28;20042;-68
2023/01/27 06:50:27;;;;;;;9.20;4.32;;;;;;;11.91;46.92;102267.13;5012795;28;20026;-66
2023/01/27 06:52:59;;;;;;;10.05;3.88;;;;;;;11.92;46.99;102278.72;5014106;28;20057;-67
2023/01/27 06:55:25;;;;;;;11.05;4.97;;;;;;;11.92;47.75;102276.03;5013319;28;20029;-65
2023/01/27 06:57:51;;;;;;;11.88;4.47;;;;;;;11.86;47.44;102277.31;5013090;28;20041;-68
2023/01/27 07:00:17;;;;;;;9.38;4.95;;;;;;;11.86;47.55;102281.81;5013454;28;20034;-68
2023/01/27 07:02:43;;;;;;;11.55;5.00;;;;;;;11.90;47.44;102289.56;5014193;28;20061;-68
2023/01/27 07:05:08;;;;;;;9.90;4.30;;;;;;;11.89;47.35;102287.81;5014680;28;20049;-68
2023/01/27 07:07:34;;;;;;;12.02;4.13;;;;;;;11.89;47.47;102293.19;5012512;28;20038;-69
2023/01/27 07:09:59;;;;;;;7.60;3.80;;;;;;;11.90;47.37;102289.56;5012771;28;20128;-68
2023/01/27 07:12:24;;;;;;;12.90;4.53;;;;;;;11.86;47.42;102288.06;4996662;28;20453;-68
2023/01/27 07:14:50;;;;;;;10.48;4.05;;;;;;;11.89;47.47;102298.56;5012659;28;20033;-68
2023/01/27 07:17:15;;;;;;;11.13;4.78;;;;;;;11.83;47.12;102285.56;5013990;28;20037;-68
2023/01/27 07:19:41;;;;;;;12.23;4.78;;;;;;;11.87;47.67;102288.88;4996269;28;20387;-68
2023/01/27 07:22:06;;;;;;;8.85;4.20;;;;;;;11.89;47.63;102295.88;4996274;28;20034;-68
2023/01/27 07:24:31;;;;;;;12.95;5.15;;;;;;;11.91;47.45;102291.28;5012500;28;20104;-69
2023/01/27 07:26:57;;;;;;;13.95;4.93;;;;;;;11.91;47.04;102296.66;5013532;28;20030;-68
2023/01/27 07:29:22;;;;;;;8.55;4.32;;;;;;;11.89;47.63;102295.03;4997760;28;20038;-68
2023/01/27 07:31:48;;;;;;;9.43;4.57;;;;;;;11.89;47.65;102298.56;4998160;28;20034;-68
2023/01/27 07:34:13;;;;;;;11.45;4.18;;;;;;;11.87;47.01;102300.50;4996546;28;20125;-68
2023/01/27 07:36:39;;;;;;;12.07;3.80;;;;;;;11.90;47.31;102304.78;4996335;28;20160;-68
2023/01/27 07:39:04;;;;;;;9.75;3.65;;;;;;;11.90;48.05;102311.03;5013331;28;20041;-68
2023/01/27 07:41:30;;;;;;;9.80;3.30;;;;;;;11.75;46.90;102278.97;4996682;28;20113;-68
2023/01/27 07:43:55;;;;;;;11.82;3.95;;;;;;;11.91;46.95;102302.03;5014297;28;20045;-68
2023/01/27 07:46:21;;;;;;;14.25;5.03;;;;;;;11.95;47.91;102303.53;5013696;28;20030;-68
2023/01/27 07:48:46;;;;;;;9.77;4.10;;;;;;;11.96;47.29;102299.88;4996564;28;20038;-68
2023/01/27 07:51:12;;;;;;;9.18;4.13;;;;;;;11.97;47.29;102298.94;4997020;28;20034;-68
2023/01/27 07:53:38;;;;;;;8.43;3.65;;;;;;;11.94;47.18;102298.28;5013505;28;20042;-68
2023/01/27 07:56:04;;;;;;;9.90;4.53;;;;;;;11.99;47.89;102305.06;5013225;28;20080;-68
2023/01/27 07:58:30;;;;;;;11.55;4.65;;;;;;;11.99;46.91;102305.06;4998789;28;20567;-68
2023/01/27 08:00:55;;;;;;;14.02;5.68;;;;;;;11.99;47.97;102307.75;5015614;28;20301;-68
2023/01/27 08:03:23;;;;;;;15.63;4.82;;;;;;;12.01;46.95;102311.19;4999459;28;20034;-68
2023/01/27 08:05:48;;;;;;;7.65;4.05;;;;;;;12.00;47.93;102312.16;5017122;28;20045;-68
2023/01/27 08:08:14;;;;;;;9.40;4.18;;;;;;;11.97;47.77;102315.06;4999099;28;20037;-68
2023/01/27 08:10:40;;;;;;;8.88;4.75;;;;;;;11.99;47.52;102314.94;5015569;28;20050;-69
2023/01/27 08:13:06;;;;;;;10.57;4.85;;;;;;;11.97;47.48;102317.75;5016627;28;20461;-68
2023/01/27 08:15:31;;;;;;;9.77;4.75;;;;;;;11.99;48.24;102323.00;5015223;28;20032;-68
2023/01/27 08:17:57;;;;;;;11.77;4.57;;;;;;;11.99;48.04;102321.16;5015843;28;20494;-68
2023/01/27 08:20:24;;;;;;;13.80;4.35;;;;;;;11.99;46.85;102315.81;5016511;28;20437;-68
2023/01/27 08:22:50;;;;;;;12.00;4.45;;;;;;;12.00;47.57;102317.53;4998885;28;20126;-69
2023/01/27 08:25:15;;;;;;;8.50;3.80;;;;;;;12.02;47.23;102320.97;5015141;28;20117;-68
2023/01/27 08:27:40;;;;;;;11.13;4.43;;;;;;;12.02;47.63;102310.22;5015089;28;20034;-68
2023/01/27 08:30:07;;;;;;;9.48;4.75;;;;;;;12.06;47.05;102317.09;5015390;28;20069;-68
2023/01/27 08:32:33;;;;;;;7.15;4.28;;;;;;;12.10;47.62;102315.94;4998610;28;20025;-68
2023/01/27 08:34:58;;;;;;;8.55;4.35;;;;;;;12.14;47.99;102314.75;5014910;28;20034;-68
2023/01/27 08:37:25;;;;;;;11.20;4.40;;;;;;;12.14;47.78;102312.06;5015017;28;20025;-69
2023/01/27 08:39:50;;;;;;;7.80;3.92;;;;;;;12.19;47.46;102319.84;4982328;28;20057;-69
2023/01/27 08:42:16;;;;;;;7.95;3.63;;;;;;;12.23;46.86;102311.47;5015214;28;20054;-68
2023/01/27 08:44:41;;;;;;;15.05;4.80;;;;;;;12.24;47.29;102310.50;5014659;28;20506;-68
2023/01/27 08:47:06;;;;;;;10.13;4.07;;;;;;;12.13;47.03;102291.56;5014522;28;20037;-68
2023/01/27 08:49:32;;;;;;;9.27;4.95;;;;;;;12.30;47.46;102313.75;5014520;28;20041;-68
2023/01/27 08:51:57;;;;;;;9.48;4.18;;;;;;;12.31;47.19;102315.47;5015895;28;20049;-68
2023/01/27 08:54:23;;;;;;;9.90;4.40;;;;;;;12.32;47.68;102317.19;4998874;28;20022;-68
2023/01/27 08:56:48;;;;;;;8.75;4.10;;;;;;;12.34;47.76;102320.66;5015658;28;20049;-68
2023/01/27 08:59:13;;;;;;;12.60;4.85;;;;;;;12.34;47.88;102321.47;5014498;28;20034;-69
2023/01/27 09:01:40;;;;;;;16.35;5.00;;;;;;;12.34;48.00;102320.66;5014331;28;20506;-68
2023/01/27 09:04:06;;;;;;;9.68;4.20;;;;;;;12.30;47.48;102309.22;5015648;28;20389;-68
2023/01/27 09:06:31;;;;;;;7.93;4.03;;;;;;;12.30;47.19;102319.13;4997323;28;20121;-68
2023/01/27 09:09:08;;;;;;;8.30;3.78;;;;;;;12.34;46.88;102321.47;5014671;28;20060;-69
2023/01/27 09:11:36;;;;;;;7.80;4.10;;;;;;;12.37;47.71;102323.97;5014112;28;20037;-68
2023/01/27 09:14:01;;;;;;;10.20;3.63;;;;;;;12.41;47.14;102324.63;5015359;28;20432;-68
2023/01/27 09:16:27;;;;;;;11.48;4.18;;;;;;;12.45;46.78;102334.22;4997783;28;20030;-68
2023/01/27 09:18:53;;;;;;;8.40;4.25;;;;;;;12.48;46.84;102328.63;4997845;28;20117;-68
2023/01/27 09:21:19;;;;;;;7.28;3.83;;;;;;;12.48;46.54;102334.84;5014467;28;20539;-68
2023/01/27 09:23:47;;;;;;;12.65;3.75;;;;;;;12.48;47.11;102340.22;4997646;28;20498;-68
2023/01/27 09:26:12;;;;;;;10.70;4.07;;;;;;;12.43;47.39;102336.13;5013866;28;20030;-68
2023/01/27 09:28:38;;;;;;;8.15;3.97;;;;;;;12.50;46.81;102343.69;5013875;28;20045;-69
2023/01/27 09:31:03;;;;;;;8.50;4.25;;;;;;;12.51;47.34;102344.53;5015282;28;20117;-68
2023/01/27 09:33:29;;;;;;;13.68;4.18;;;;;;;12.53;47.61;102345.31;5015128;28;20029;-68
2023/01/27 09:36:00;;;;;;;8.88;4.20;;;;;;;12.50;47.07;102340.13;5015630;28;20458;-68
2023/01/27 09:38:29;;;;;;;11.23;4.28;;;;;;;12.54;47.71;102352.38;5015128;28;20501;-69
2023/01/27 09:41:16;;;;;;;7.88;4.07;;;;;;;12.50;47.02;102345.50;5016196;28;20070;-68
2023/01/27 09:43:44;;;;;;;8.27;3.97;;;;;;;12.56;46.86;102358.53;5015091;28;20035;-69
2023/01/27 09:46:20;;;;;;;6.68;3.38;;;;;;;12.54;46.60;102352.38;5014939;28;20117;-69
2023/01/27 09:49:20;;;;;;;6.22;3.35;;;;;;;12.54;47.68;102360.44;5013653;28;20125;-69
2023/01/27 09:51:57;;;;;;;5.50;3.25;;;;;;;12.49;47.59;102349.16;5013591;28;20092;-68
2023/01/27 09:54:31;;;;;;;8.02;4.47;;;;;;;12.53;48.00;102356.91;5013930;28;20026;-69
2023/01/27 09:57:15;;;;;;;6.38;3.63;;;;;;;12.52;47.18;102365.06;5013890;28;20042;-68
2023/01/27 10:00:01;;;;;;;7.15;3.78;;;;;;;12.53;47.41;102364.13;5015146;28;20038;-68
2023/01/27 10:02:32;;;;;;;7.55;4.35;;;;;;;12.53;47.79;102364.97;4997798;28;20034;-68
2023/01/27 10:05:25;;;;;;;6.30;3.92;;;;;;;12.54;46.90;102368.50;5014753;28;20498;-69
2023/01/27 10:08:06;;;;;;;6.63;3.10;;;;;;;12.54;47.98;102372.06;5013206;28;20127;-69
2023/01/27 10:10:55;;;;;;;6.47;3.10;;;;;;;12.57;47.11;102370.97;5014436;28;20038;-68
2023/01/27 10:13:30;;;;;;;5.28;3.28;;;;;;;12.57;47.50;102373.69;5013094;28;20034;-69
2023/01/27 10:16:26;;;;;;;5.97;3.40;;;;;;;12.56;47.45;102374.66;4996670;28;20038;-68
2023/01/27 10:19:09;;;;;;;7.13;3.40;;;;;;;12.56;47.27;102375.50;5013462;28;20116;-68
2023/01/27 10:21:50;;;;;;;6.32;3.33;;;;;;;12.57;48.04;102376.38;5014100;28;20105;-68
2023/01/27 10:24:22;;;;;;;10.90;3.65;;;;;;;12.60;47.71;102376.16;5013382;28;20080;-69
2023/01/27 10:26:55;;;;;;;6.35;3.30;;;;;;;12.62;47.55;102371.53;5013056;28;20034;-69
2023/01/27 10:29:24;;;;;;;6.75;2.85;;;;;;;12.62;48.01;102372.41;4996478;28;20040;-69
2023/01/27 10:32:12;;;;;;;9.13;3.67;;;;;;;12.64;46.93;102369.63;5012948;28;20407;-68
2023/01/27 10:35:04;;;;;;;4.72;3.05;;;;;;;12.60;47.58;102360.91;5014061;28;20113;-69
2023/01/27 10:37:39;;;;;;;5.45;3.17;;;;;;;12.64;47.46;102362.41;5013951;28;20052;-68
2023/01/27 10:40:13;;;;;;;4.72;2.60;;;;;;;12.61;47.60;102361.75;5012891;28;20037;-69
2023/01/27 10:42:47;;;;;;;5.40;3.05;;;;;;;12.67;47.73;102366.72;5012841;28;20117;-68
2023/01/27 10:45:26;;;;;;;5.25;2.60;;;;;;;12.70;46.73;102366.53;5013244;28;20033;-68
2023/01/27 10:48:20;;;;;;;5.20;2.97;;;;;;;12.67;47.02;102358.66;4995142;28;20045;-68
2023/01/27 10:51:08;;;;;;;4.07;2.92;;;;;;;12.71;47.59;102368.22;5013849;28;20119;-68
2023/01/27 10:53:50;;;;;;;5.43;2.95;;;;;;;12.71;47.52;102361.03;5012419;28;20109;-68
2023/01/27 10:56:28;;;;;;;5.38;3.00;;;;;;;12.78;46.46;102366.84;5013727;28;20065;-68
2023/01/27 10:58:56;;;;;;;7.22;2.92;;;;;;;12.78;47.16;102369.53;5012354;28;20064;-68
2023/01/27 11:01:31;;;;;;;5.25;3.00;;;;;;;12.77;47.01;102359.75;5013616;28;20509;-69
2023/01/27 11:04:01;;;;;;;6.22;3.67;;;;;;;12.82;47.48;102362.97;5012301;28;20034;-68
2023/01/27 11:06:34;;;;;;;4.88;2.75;;;;;;;12.84;47.44;102361.06;5013558;28;20041;-68
2023/01/27 11:09:36;;;;;;;4.00;2.17;;;;;;;12.86;47.66;102361.78;5012789;28;20109;-68
2023/01/27 11:12:12;;;;;;;4.38;2.63;;;;;;;12.80;46.61;102351.47;4983032;28;20068;-68
2023/01/27 11:14:47;;;;;;;4.38;2.60;;;;;;;12.86;47.09;102361.78;4995780;28;20042;-68
2023/01/27 11:17:27;;;;;;;5.43;2.47;;;;;;;12.85;47.14;102360.06;4995766;28;20088;-68
2023/01/27 11:19:53;;;;;;;4.30;2.80;;;;;;;12.88;47.11;102354.47;5012246;28;20037;-68
2023/01/27 11:22:22;;;;;;;5.60;3.08;;;;;;;12.87;46.61;102347.38;5013761;28;20034;-68
2023/01/27 11:25:12;;;;;;;5.88;3.03;;;;;;;12.89;47.61;102348.16;5012038;28;20030;-68
2023/01/27 11:28:02;;;;;;;6.43;3.03;;;;;;;12.91;46.57;102343.50;4995621;28;20030;-69
2023/01/27 11:31:15;;;;;;;5.07;3.00;;;;;;;12.91;47.39;102339.94;5011810;28;20073;-68
2023/01/27 11:33:57;;;;;;;6.75;3.83;;;;;;;12.92;47.85;102337.19;5002492;28;20041;-68
2023/01/27 11:36:24;;;;;;;5.28;3.22;;;;;;;12.96;46.46;102341.34;5013889;28;20080;-69
2023/01/27 11:38:51;;;;;;;4.72;3.17;;;;;;;12.99;46.78;102335.75;5013460;28;20042;-68
2023/01/27 11:41:16;;;;;;;4.13;2.90;;;;;;;13.01;47.13;102333.81;4995620;28;20036;-68
2023/01/27 11:43:41;;;;;;;5.32;3.22;;;;;;;13.04;46.95;102338.13;5013293;28;20038;-68
2023/01/27 11:46:21;;;;;;;5.20;3.17;;;;;;;13.05;47.25;102339.84;4995650;28;20163;-68
2023/01/27 11:48:49;;;;;;;7.68;3.38;;;;;;;13.05;47.34;102338.03;5014979;28;20562;-69
2023/01/27 11:51:27;;;;;;;5.00;3.53;;;;;;;13.06;46.67;102337.06;4981402;28;20509;-68
2023/01/27 11:54:14;;;;;;;4.30;2.72;;;;;;;13.06;46.88;102337.06;5012047;28;20534;-69
2023/01/27 11:56:41;;;;;;;4.20;2.70;;;;;;;13.04;47.84;102333.59;5011757;28;20026;-68